createdAt,value
2023-05-05T00:01:04.668Z,100647.97
2023-05-05T00:03:35.324Z,100645.81
2023-05-05T00:06:05.336Z,100645.34
2023-05-05T00:08:34.132Z,100645.66
2023-05-05T00:11:02.832Z,100644.13
2023-05-05T00:13:32.949Z,100648.91
2023-05-05T00:16:01.844Z,100642.44
2023-05-05T00:18:30.506Z,100641.00
2023-05-05T00:20:59.217Z,100649.28
2023-05-05T00:23:27.802Z,100640.88
2023-05-05T00:25:56.587Z,100644.44
2023-05-05T00:28:25.680Z,100652.50
2023-05-05T00:30:55.401Z,100653.34
2023-05-05T00:33:24.097Z,100651.63
2023-05-05T00:35:52.552Z,100649.09
2023-05-05T00:38:21.215Z,100646.47
2023-05-05T00:40:49.581Z,100641.16
2023-05-05T00:43:17.972Z,100639.31
2023-05-05T00:45:47.929Z,100635.75
2023-05-05T00:48:18.865Z,100640.09
2023-05-05T00:50:47.512Z,100637.44
2023-05-05T00:53:15.874Z,100635.88
2023-05-05T00:55:44.582Z,100636.75
2023-05-05T00:58:14.017Z,100630.56
2023-05-05T01:00:42.916Z,100628.72
2023-05-05T01:03:13.020Z,100618.22
2023-05-05T01:05:53.940Z,100621.03
2023-05-05T01:08:39.416Z,100608.09
2023-05-05T01:11:18.194Z,100610.28
2023-05-05T01:14:01.933Z,100597.97
2023-05-05T01:16:34.168Z,100616.81
2023-05-05T01:19:15.629Z,100628.38
2023-05-05T01:21:53.576Z,100603.03
2023-05-05T01:24:49.683Z,100615.72
2023-05-05T01:27:49.389Z,100609.66
2023-05-05T01:31:01.639Z,100614.16
2023-05-05T01:33:37.757Z,100610.94
2023-05-05T01:36:13.249Z,100611.09
2023-05-05T01:38:45.981Z,100617.53
2023-05-05T01:41:21.055Z,100621.13
2023-05-05T01:43:52.232Z,100628.28
2023-05-05T01:46:24.873Z,100625.72
2023-05-05T01:48:56.918Z,100635.50
2023-05-05T01:51:27.917Z,100641.84
2023-05-05T01:54:00.840Z,100635.84
2023-05-05T01:56:32.317Z,100636.84
2023-05-05T01:59:02.831Z,100631.81
2023-05-05T02:01:32.622Z,100636.31
2023-05-05T02:04:04.216Z,100631.00
2023-05-05T02:06:33.516Z,100643.47
2023-05-05T02:09:04.315Z,100646.13
2023-05-05T02:11:33.474Z,100651.53
2023-05-05T02:14:03.142Z,100647.25
2023-05-05T02:16:33.054Z,100640.19
2023-05-05T02:19:05.383Z,100644.53
2023-05-05T02:21:34.701Z,100654.31
2023-05-05T02:24:03.663Z,100649.00
2023-05-05T02:26:35.972Z,100662.19
2023-05-05T02:29:09.180Z,100654.16
2023-05-05T02:31:45.281Z,100645.38
2023-05-05T02:34:36.644Z,100657.59
2023-05-05T02:37:11.019Z,100656.19
2023-05-05T02:39:48.172Z,100663.47
2023-05-05T02:42:23.214Z,100660.31
2023-05-05T02:44:56.377Z,100657.00
2023-05-05T02:47:29.148Z,100662.44
2023-05-05T02:49:59.390Z,100656.53
2023-05-05T02:52:27.817Z,100661.25
2023-05-05T02:54:56.654Z,100663.22
2023-05-05T02:57:33.022Z,100662.50
2023-05-05T03:00:09.581Z,100670.94
2023-05-05T03:02:45.958Z,100664.19
2023-05-05T03:05:24.182Z,100669.72
2023-05-05T03:08:03.401Z,100673.44
2023-05-05T03:10:47.452Z,100672.59
2023-05-05T03:13:19.641Z,100674.56
2023-05-05T03:15:52.471Z,100668.44
2023-05-05T03:18:26.154Z,100679.00
2023-05-05T03:21:08.583Z,100678.13
2023-05-05T03:23:39.841Z,100673.84
2023-05-05T03:26:19.062Z,100666.81
2023-05-05T03:28:48.645Z,100672.38
2023-05-05T03:31:25.956Z,100669.06
2023-05-05T03:33:58.778Z,100672.75
2023-05-05T03:36:32.922Z,100672.88
2023-05-05T03:39:01.733Z,100668.66
2023-05-05T03:41:34.661Z,100668.00
2023-05-05T03:44:04.620Z,100684.09
2023-05-05T03:46:33.798Z,100681.56
2023-05-05T03:49:02.169Z,100685.19
2023-05-05T03:51:32.600Z,100684.41
2023-05-05T03:54:02.012Z,100686.28
2023-05-05T03:56:30.462Z,100682.88
2023-05-05T03:58:59.159Z,100689.00
2023-05-05T04:01:29.788Z,100693.47
2023-05-05T04:03:59.049Z,100690.84
2023-05-05T04:06:27.613Z,100696.19
2023-05-05T04:08:57.571Z,100693.56
2023-05-05T04:11:26.285Z,100687.41
2023-05-05T04:13:56.621Z,100692.69
2023-05-05T04:16:26.144Z,100698.84
2023-05-05T04:18:55.372Z,100700.63
2023-05-05T04:21:24.169Z,100700.56
2023-05-05T04:23:53.092Z,100703.06
2023-05-05T04:26:24.661Z,100702.00
2023-05-05T04:28:54.339Z,100701.88
2023-05-05T04:31:23.082Z,100706.06
2023-05-05T04:33:51.580Z,100709.47
2023-05-05T04:36:20.434Z,100706.56
2023-05-05T04:38:50.006Z,100707.16
2023-05-05T04:41:19.142Z,100709.59
2023-05-05T04:43:49.997Z,100712.91
2023-05-05T04:46:18.851Z,100713.66
2023-05-05T04:48:47.627Z,100716.97
2023-05-05T04:51:16.418Z,100717.69
2023-05-05T04:53:45.187Z,100724.44
2023-05-05T04:56:13.585Z,100722.44
2023-05-05T04:58:42.260Z,100719.34
2023-05-05T05:01:12.077Z,100714.53
2023-05-05T05:03:41.192Z,100709.69
2023-05-05T05:06:09.734Z,100720.88
2023-05-05T05:08:38.418Z,100719.66
2023-05-05T05:11:07.406Z,100722.06
2023-05-05T05:13:36.224Z,100727.09
2023-05-05T05:16:05.038Z,100723.22
2023-05-05T05:18:36.007Z,100724.53
2023-05-05T05:21:04.898Z,100732.06
2023-05-05T05:23:33.665Z,100735.97
2023-05-05T05:26:05.149Z,100739.94
2023-05-05T05:28:33.960Z,100737.66
2023-05-05T05:31:02.966Z,100744.13
2023-05-05T05:33:32.429Z,100752.44
2023-05-05T05:36:02.496Z,100744.13
2023-05-05T05:38:31.279Z,100745.69
2023-05-05T05:41:07.374Z,100745.28
2023-05-05T05:43:37.067Z,100750.13
2023-05-05T05:46:08.816Z,100743.66
2023-05-05T05:48:38.626Z,100744.06
2023-05-05T05:51:08.534Z,100745.31
2023-05-05T05:53:37.282Z,100752.81
2023-05-05T05:56:06.737Z,100752.50
2023-05-05T05:58:35.594Z,100753.84
2023-05-05T06:01:05.105Z,100749.06
2023-05-05T06:03:34.498Z,100758.50
2023-05-05T06:06:03.345Z,100749.28
2023-05-05T06:08:33.279Z,100763.09
2023-05-05T06:11:02.061Z,100765.59
2023-05-05T06:13:31.475Z,100767.94
2023-05-05T06:16:00.267Z,100773.81
2023-05-05T06:18:30.006Z,100766.53
2023-05-05T06:20:58.659Z,100764.50
2023-05-05T06:23:29.518Z,100766.19
2023-05-05T06:26:05.144Z,100771.19
2023-05-05T06:28:33.967Z,100774.44
2023-05-05T06:31:02.696Z,100772.31
2023-05-05T06:33:31.099Z,100772.09
2023-05-05T06:35:59.787Z,100775.31
2023-05-05T06:38:28.586Z,100778.59
2023-05-05T06:40:58.448Z,100769.50
2023-05-05T06:43:30.087Z,100762.94
2023-05-05T06:46:01.830Z,100767.13
2023-05-05T06:48:30.242Z,100760.72
2023-05-05T06:50:58.936Z,100762.00
2023-05-05T06:53:27.638Z,100765.09
2023-05-05T06:55:56.050Z,100760.03
2023-05-05T06:58:24.731Z,100760.16
2023-05-05T07:00:54.544Z,100773.56
2023-05-05T07:03:23.128Z,100770.22
2023-05-05T07:05:53.759Z,100760.59
2023-05-05T07:08:22.494Z,100760.72
2023-05-05T07:10:51.258Z,100773.28
2023-05-05T07:13:20.093Z,100767.13
2023-05-05T07:15:48.920Z,100770.00
2023-05-05T07:18:20.308Z,100773.56
2023-05-05T07:20:50.160Z,100771.56
2023-05-05T07:23:18.597Z,100771.69
2023-05-05T07:25:47.338Z,100770.50
2023-05-05T07:28:16.335Z,100765.25
2023-05-05T07:30:44.715Z,100760.53
2023-05-05T07:33:14.441Z,100761.72
2023-05-05T07:35:44.190Z,100774.53
2023-05-05T07:38:12.670Z,100772.69
2023-05-05T07:40:41.063Z,100760.22
2023-05-05T07:43:09.818Z,100758.19
2023-05-05T07:45:38.507Z,100755.06
2023-05-05T07:48:07.581Z,100763.13
2023-05-05T07:50:36.266Z,100771.66
2023-05-05T07:53:14.633Z,100767.97
2023-05-05T07:55:43.989Z,100766.94
2023-05-05T07:58:12.750Z,100762.63
2023-05-05T08:00:43.676Z,100762.41
2023-05-05T08:03:13.029Z,100764.66
2023-05-05T08:05:41.751Z,100766.38
2023-05-05T08:08:11.499Z,100757.34
2023-05-05T08:10:40.232Z,100759.31
2023-05-05T08:13:08.902Z,100756.63
2023-05-05T08:15:37.636Z,100759.00
2023-05-05T08:18:06.091Z,100756.50
2023-05-05T08:20:34.791Z,100757.91
2023-05-05T08:23:03.270Z,100753.94
2023-05-05T08:25:32.986Z,100752.66
2023-05-05T08:28:01.403Z,100753.44
2023-05-05T08:30:30.694Z,100756.81
2023-05-05T08:33:00.783Z,100746.91
2023-05-05T08:35:29.481Z,100750.09
2023-05-05T08:37:59.323Z,100742.28
2023-05-05T08:40:34.805Z,100746.31
2023-05-05T08:43:03.622Z,100743.19
2023-05-05T08:45:32.694Z,100735.84
2023-05-05T08:48:04.635Z,100729.31
2023-05-05T08:50:34.018Z,100732.13
2023-05-05T08:53:11.542Z,100730.41
2023-05-05T08:55:50.932Z,100730.09
2023-05-05T08:58:20.233Z,100728.91
2023-05-05T09:00:49.219Z,100731.47
2023-05-05T09:03:18.368Z,100725.78
2023-05-05T09:05:47.116Z,100735.66
2023-05-05T09:08:15.525Z,100731.66
2023-05-05T09:10:45.295Z,100729.94
2023-05-05T09:13:14.470Z,100729.88
2023-05-05T09:15:43.363Z,100727.56
2023-05-05T09:18:13.130Z,100722.25
2023-05-05T09:20:42.485Z,100724.53
2023-05-05T09:23:12.944Z,100722.19
2023-05-05T09:25:42.078Z,100722.44
2023-05-05T09:28:13.915Z,100715.81
2023-05-05T09:30:46.144Z,100725.53
2023-05-05T09:33:15.653Z,100721.13
2023-05-05T09:35:52.144Z,100700.03
2023-05-05T09:38:22.084Z,100696.78
2023-05-05T09:40:52.140Z,100694.44
2023-05-05T09:43:24.713Z,100693.44
2023-05-05T09:46:05.920Z,100690.72
2023-05-05T09:48:34.864Z,100688.06
2023-05-05T09:51:03.802Z,100679.44
2023-05-05T09:53:42.240Z,100692.81
2023-05-05T09:56:11.383Z,100685.66
2023-05-05T09:58:41.667Z,100673.50
2023-05-05T10:01:24.226Z,100679.44
2023-05-05T10:03:53.112Z,100683.84
2023-05-05T10:06:39.995Z,100687.06
2023-05-05T10:09:08.517Z,100685.03
2023-05-05T10:11:37.405Z,100686.69
2023-05-05T10:14:08.608Z,100678.09
2023-05-05T10:16:38.012Z,100690.94
2023-05-05T10:19:07.326Z,100672.97
2023-05-05T10:21:42.151Z,100677.63
2023-05-05T10:24:17.762Z,100675.91
2023-05-05T10:26:48.466Z,100678.09
2023-05-05T10:29:32.455Z,100672.41
2023-05-05T10:32:27.516Z,100680.94
2023-05-05T10:35:03.713Z,100668.63
2023-05-05T10:37:32.435Z,100684.63
2023-05-05T10:40:02.268Z,100672.06
2023-05-05T10:42:32.053Z,100668.28
2023-05-05T10:45:01.990Z,100670.25
2023-05-05T10:47:31.459Z,100667.25
2023-05-05T10:50:08.783Z,100668.53
2023-05-05T10:52:43.965Z,100667.25
2023-05-05T10:55:19.329Z,100674.75
2023-05-05T10:57:52.874Z,100665.00
2023-05-05T11:00:54.192Z,100667.13
2023-05-05T11:03:24.134Z,100656.63
2023-05-05T11:06:13.626Z,100660.38
2023-05-05T11:08:44.614Z,100660.56
2023-05-05T11:11:13.901Z,100642.19
2023-05-05T11:13:42.816Z,100639.69
2023-05-05T11:16:48.134Z,100645.78
2023-05-05T11:19:48.936Z,100638.06
2023-05-05T11:22:17.746Z,100635.56
2023-05-05T11:24:47.151Z,100629.53
2023-05-05T11:27:15.710Z,100643.25
2023-05-05T11:30:07.585Z,100635.84
2023-05-05T11:32:37.511Z,100630.25
2023-05-05T11:35:07.175Z,100623.22
2023-05-05T11:37:38.458Z,100624.66
2023-05-05T11:40:22.530Z,100619.19
2023-05-05T11:42:51.234Z,100619.66
2023-05-05T11:45:24.855Z,100618.16
2023-05-05T11:48:15.732Z,100624.94
2023-05-05T11:50:45.150Z,100617.47
2023-05-05T11:53:15.783Z,100621.91
2023-05-05T11:55:44.431Z,100621.19
2023-05-05T11:58:19.674Z,100612.31
2023-05-05T12:00:48.623Z,100605.78
2023-05-05T12:03:18.567Z,100613.13
2023-05-05T12:05:48.720Z,100607.16
2023-05-05T12:08:17.438Z,100603.22
2023-05-05T12:10:46.634Z,100605.19
2023-05-05T12:13:21.773Z,100602.38
2023-05-05T12:15:50.557Z,100594.84
2023-05-05T12:18:23.495Z,100592.75
2023-05-05T12:20:52.854Z,100594.25
2023-05-05T12:23:21.315Z,100584.91
2023-05-05T12:25:50.150Z,100582.16
2023-05-05T12:28:18.800Z,100583.22
2023-05-05T12:30:57.832Z,100583.78
2023-05-05T12:33:27.942Z,100574.31
2023-05-05T12:35:57.033Z,100572.34
2023-05-05T12:38:26.843Z,100574.19
2023-05-05T12:40:55.814Z,100560.00
2023-05-05T12:43:30.586Z,100561.38
2023-05-05T12:46:08.379Z,100563.75
2023-05-05T12:48:40.228Z,100563.69
2023-05-05T12:51:17.282Z,100555.19
2023-05-05T12:53:46.671Z,100550.97
2023-05-05T12:56:35.200Z,100555.06
2023-05-05T12:59:05.506Z,100550.88
2023-05-05T13:01:35.124Z,100544.50
2023-05-05T13:04:11.217Z,100536.72
2023-05-05T13:06:40.672Z,100532.28
2023-05-05T13:09:10.044Z,100536.63
2023-05-05T13:11:39.585Z,100535.69
2023-05-05T13:14:09.003Z,100516.06
2023-05-05T13:16:37.811Z,100510.19
2023-05-05T13:19:07.563Z,100507.03
2023-05-05T13:21:36.213Z,100506.59
2023-05-05T13:24:23.009Z,100507.56
2023-05-05T13:26:54.017Z,100502.63
2023-05-05T13:29:24.674Z,100504.75
2023-05-05T13:31:55.824Z,100507.28
2023-05-05T13:34:25.677Z,100496.59
2023-05-05T13:36:54.058Z,100497.63
2023-05-05T13:39:22.719Z,100503.25
2023-05-05T13:41:51.429Z,100501.16
2023-05-05T13:44:20.132Z,100504.69
2023-05-05T13:46:48.909Z,100507.72
2023-05-05T13:49:17.917Z,100493.81
2023-05-05T13:51:47.739Z,100495.78
2023-05-05T13:54:16.431Z,100490.22
2023-05-05T13:56:45.164Z,100497.78
2023-05-05T13:59:13.823Z,100496.81
2023-05-05T14:01:42.554Z,100496.47
2023-05-05T14:04:10.997Z,100503.25
2023-05-05T14:06:39.746Z,100492.97
2023-05-05T14:09:09.489Z,100493.97
2023-05-05T14:11:38.228Z,100492.38
2023-05-05T14:14:06.896Z,100491.63
2023-05-05T14:16:35.697Z,100490.34
2023-05-05T14:19:04.450Z,100486.69
2023-05-05T14:21:33.521Z,100489.19
2023-05-05T14:24:02.206Z,100497.00
2023-05-05T14:26:32.062Z,100492.78
2023-05-05T14:29:00.840Z,100491.66
2023-05-05T14:31:30.019Z,100489.53
2023-05-05T14:33:58.729Z,100499.28
2023-05-05T14:36:27.424Z,100508.22
2023-05-05T14:38:56.164Z,100519.25
2023-05-05T14:41:24.842Z,100509.97
2023-05-05T14:43:54.570Z,100513.81
2023-05-05T14:46:23.312Z,100513.00
2023-05-05T14:48:52.000Z,100519.94
2023-05-05T14:51:20.739Z,100510.47
2023-05-05T14:53:49.806Z,100507.56
2023-05-05T14:56:21.714Z,100509.66
2023-05-05T14:58:50.485Z,100506.41
2023-05-05T15:01:21.650Z,100504.75
2023-05-05T15:03:50.145Z,100516.94
2023-05-05T15:06:19.003Z,100509.38
2023-05-05T15:08:47.526Z,100511.09
2023-05-05T15:11:15.868Z,100521.81
2023-05-05T15:13:44.930Z,100523.13
2023-05-05T15:16:13.660Z,100529.03
2023-05-05T15:18:43.395Z,100537.50
2023-05-05T15:21:11.858Z,100532.09
2023-05-05T15:23:40.519Z,100530.34
2023-05-05T15:26:09.172Z,100534.91
2023-05-05T15:28:37.863Z,100545.50
2023-05-05T15:31:06.867Z,100553.34
2023-05-05T15:33:35.419Z,100561.44
2023-05-05T15:36:05.668Z,100567.75
2023-05-05T15:38:34.048Z,100572.34
2023-05-05T15:41:02.715Z,100586.66
2023-05-05T15:43:31.080Z,100572.38
2023-05-05T15:45:59.430Z,100577.53
2023-05-05T15:48:28.190Z,100565.75
2023-05-05T15:50:56.872Z,100566.84
2023-05-05T15:53:26.946Z,100569.19
2023-05-05T15:55:55.308Z,100594.59
2023-05-05T15:58:24.029Z,100581.81
2023-05-05T16:00:52.721Z,100583.28
2023-05-05T16:03:21.549Z,100589.88
2023-05-05T16:05:50.171Z,100609.06
2023-05-05T16:08:19.225Z,100609.38
2023-05-05T16:10:48.975Z,100617.69
2023-05-05T16:13:17.780Z,100612.59
2023-05-05T16:15:46.523Z,100623.50
2023-05-05T16:18:15.196Z,100623.66
2023-05-05T16:20:43.878Z,100616.59
2023-05-05T16:23:12.584Z,100621.81
2023-05-05T16:25:41.302Z,100618.75
2023-05-05T16:28:11.102Z,100619.72
2023-05-05T16:30:39.853Z,100612.38
2023-05-05T16:33:08.297Z,100610.88
2023-05-05T16:35:37.232Z,100608.97
2023-05-05T16:38:05.952Z,100598.34
2023-05-05T16:40:36.655Z,100590.19
2023-05-05T16:43:05.584Z,100593.41
2023-05-05T16:45:35.390Z,100601.88
2023-05-05T16:48:05.137Z,100611.47
2023-05-05T16:50:35.508Z,100600.63
2023-05-05T16:53:03.988Z,100604.63
2023-05-05T16:55:32.727Z,100606.03
2023-05-05T16:58:01.408Z,100612.03
2023-05-05T17:00:30.157Z,100614.50
2023-05-05T17:03:00.070Z,100615.16
2023-05-05T17:05:28.958Z,100609.94
2023-05-05T17:07:57.688Z,100607.38
2023-05-05T17:10:27.048Z,100601.19
2023-05-05T17:12:56.080Z,100605.75
2023-05-05T17:15:24.789Z,100614.78
2023-05-05T17:17:53.816Z,100607.75
2023-05-05T17:20:23.823Z,100607.66
2023-05-05T17:22:52.182Z,100610.31
2023-05-05T17:25:20.968Z,100601.38
2023-05-05T17:27:49.578Z,100614.69
2023-05-05T17:30:18.233Z,100617.47
2023-05-05T17:32:47.292Z,100607.84
2023-05-05T17:35:16.107Z,100610.53
2023-05-05T17:37:45.965Z,100613.91
2023-05-05T17:40:14.807Z,100617.53
2023-05-05T17:42:43.532Z,100613.06
2023-05-05T17:45:12.999Z,100608.59
2023-05-05T17:47:41.704Z,100615.72
2023-05-05T17:50:11.780Z,100617.47
2023-05-05T17:52:41.797Z,100619.03
2023-05-05T17:55:12.232Z,100610.03
2023-05-05T17:57:41.255Z,100615.25
2023-05-05T18:00:10.890Z,100616.78
2023-05-05T18:02:42.391Z,100609.75
2023-05-05T18:05:11.761Z,100621.25
2023-05-05T18:07:40.665Z,100623.97
2023-05-05T18:10:11.930Z,100626.56
2023-05-05T18:12:40.691Z,100632.94
2023-05-05T18:15:10.472Z,100638.25
2023-05-05T18:17:39.184Z,100641.03
2023-05-05T18:20:09.405Z,100641.88
2023-05-05T18:22:39.478Z,100644.72
2023-05-05T18:25:11.682Z,100648.50
2023-05-05T18:27:41.630Z,100647.19
2023-05-05T18:30:10.995Z,100645.66
2023-05-05T18:32:39.752Z,100654.03
2023-05-05T18:35:09.567Z,100648.88
2023-05-05T18:37:38.418Z,100650.97
2023-05-05T18:40:09.927Z,100654.56
2023-05-05T18:42:39.715Z,100652.00
2023-05-05T18:45:10.498Z,100660.06
2023-05-05T18:47:39.671Z,100655.81
2023-05-05T18:50:09.924Z,100664.69
2023-05-05T18:52:38.760Z,100663.84
2023-05-05T18:55:08.751Z,100668.50
2023-05-05T18:57:38.983Z,100667.84
2023-05-05T19:00:09.270Z,100678.66
2023-05-05T19:02:38.105Z,100680.72
2023-05-05T19:05:08.644Z,100682.59
2023-05-05T19:07:37.506Z,100677.63
2023-05-05T19:10:06.933Z,100681.25
2023-05-05T19:12:35.878Z,100688.44
2023-05-05T19:15:06.577Z,100689.31
2023-05-05T19:17:35.643Z,100693.03
2023-05-05T19:20:04.642Z,100688.81
2023-05-05T19:22:33.315Z,100694.28
2023-05-05T19:25:02.333Z,100687.25
2023-05-05T19:27:33.744Z,100697.03
2023-05-05T19:30:02.587Z,100706.97
2023-05-05T19:32:32.982Z,100694.63
2023-05-05T19:35:02.120Z,100703.72
2023-05-05T19:37:31.223Z,100704.75
2023-05-05T19:40:00.043Z,100697.81
2023-05-05T19:42:32.433Z,100700.66
2023-05-05T19:45:00.874Z,100705.97
2023-05-05T19:47:31.287Z,100708.63
2023-05-05T19:50:00.251Z,100714.88
2023-05-05T19:52:30.704Z,100705.97
2023-05-05T19:55:00.422Z,100706.13
2023-05-05T19:57:29.056Z,100715.06
2023-05-05T19:59:57.724Z,100721.41
2023-05-05T20:02:27.117Z,100719.84
2023-05-05T20:04:57.899Z,100726.03
2023-05-05T20:07:26.763Z,100722.75
2023-05-05T20:09:55.944Z,100729.94
2023-05-05T20:12:25.324Z,100722.25
2023-05-05T20:14:53.764Z,100723.28
2023-05-05T20:17:23.680Z,100724.47
2023-05-05T20:19:52.387Z,100717.69
2023-05-05T20:22:22.169Z,100724.13
2023-05-05T20:24:50.522Z,100727.97
2023-05-05T20:27:19.206Z,100725.50
2023-05-05T20:29:48.246Z,100726.69
2023-05-05T20:32:20.366Z,100734.03
2023-05-05T20:34:48.921Z,100730.91
2023-05-05T20:37:18.232Z,100725.00
2023-05-05T20:39:48.079Z,100727.97
2023-05-05T20:42:16.591Z,100731.84
2023-05-05T20:44:45.281Z,100733.94
2023-05-05T20:47:13.998Z,100732.50
2023-05-05T20:49:42.966Z,100730.03
2023-05-05T20:52:11.363Z,100735.56
2023-05-05T20:54:40.150Z,100734.84
2023-05-05T20:57:10.231Z,100737.66
2023-05-05T20:59:39.222Z,100738.94
2023-05-05T21:02:08.320Z,100742.69
2023-05-05T21:04:37.081Z,100740.19
2023-05-05T21:07:05.739Z,100744.88
2023-05-05T21:09:35.241Z,100753.91
2023-05-05T21:12:04.096Z,100757.63
2023-05-05T21:14:33.784Z,100740.94
2023-05-05T21:17:02.480Z,100749.94
2023-05-05T21:19:31.502Z,100747.50
2023-05-05T21:22:02.105Z,100740.66
2023-05-05T21:24:30.858Z,100735.66
2023-05-05T21:26:59.519Z,100735.81
2023-05-05T21:29:28.213Z,100743.13
2023-05-05T21:31:58.064Z,100734.38
2023-05-05T21:34:26.818Z,100741.72
2023-05-05T21:36:56.992Z,100741.81
2023-05-05T21:39:26.046Z,100736.69
2023-05-05T21:41:54.962Z,100742.09
2023-05-05T21:44:25.387Z,100740.53
2023-05-05T21:46:54.209Z,100737.09
2023-05-05T21:49:24.128Z,100738.97
2023-05-05T21:51:52.778Z,100730.38
2023-05-05T21:54:21.430Z,100737.53
2023-05-05T21:56:50.104Z,100741.28
2023-05-05T21:59:18.826Z,100751.03
2023-05-05T22:01:49.620Z,100742.38
2023-05-05T22:04:18.318Z,100735.34
2023-05-05T22:06:48.315Z,100739.88
2023-05-05T22:09:17.329Z,100740.00
2023-05-05T22:11:46.441Z,100736.56
2023-05-05T22:14:15.413Z,100742.00
2023-05-05T22:16:44.155Z,100744.84
2023-05-05T22:19:12.921Z,100745.94
2023-05-05T22:21:41.575Z,100754.88
2023-05-05T22:24:11.373Z,100749.81
2023-05-05T22:26:43.074Z,100743.88
2023-05-05T22:29:12.054Z,100744.91
2023-05-05T22:31:40.847Z,100748.66
2023-05-05T22:34:09.808Z,100753.38
2023-05-05T22:36:38.538Z,100755.34
2023-05-05T22:39:07.383Z,100752.84
2023-05-05T22:41:37.132Z,100763.56
2023-05-05T22:44:06.895Z,100761.13
2023-05-05T22:46:35.584Z,100759.50
2023-05-05T22:49:04.356Z,100764.06
2023-05-05T22:51:33.145Z,100761.56
2023-05-05T22:54:01.900Z,100761.69
2023-05-05T22:56:30.599Z,100759.19
2023-05-05T22:59:00.381Z,100755.75
2023-05-05T23:01:29.106Z,100761.16
2023-05-05T23:03:57.920Z,100775.34
2023-05-05T23:06:27.784Z,100763.94
2023-05-05T23:08:56.466Z,100755.25
2023-05-05T23:11:26.687Z,100770.31
2023-05-05T23:13:55.349Z,100770.44
2023-05-05T23:16:25.081Z,100767.00
2023-05-05T23:18:53.745Z,100768.97
2023-05-05T23:21:22.415Z,100762.09
2023-05-05T23:23:50.766Z,100758.78
2023-05-05T23:26:19.115Z,100759.91
2023-05-05T23:28:47.802Z,100758.34
2023-05-05T23:31:16.477Z,100766.47
2023-05-05T23:33:46.290Z,100759.44
2023-05-05T23:36:14.986Z,100752.50
2023-05-05T23:38:43.407Z,100760.50
2023-05-05T23:41:12.082Z,100761.56
2023-05-05T23:43:41.027Z,100763.53
2023-05-05T23:46:09.720Z,100760.22
2023-05-05T23:48:38.392Z,100759.47
2023-05-05T23:51:08.203Z,100762.16
2023-05-05T23:53:37.068Z,100754.38
2023-05-05T23:56:06.171Z,100753.53
2023-05-05T23:58:35.019Z,100759.00
